This is the latest recevied weather packets stored in our database for station/object HS3PIK-2. If no packets are shown the sender has not sent any weather packets the latest 10 day(s).
| Time | Temp. | Humidity | Pressure | Rain* | Wind** | Luminosity | Snow |
|---|---|---|---|---|---|---|---|
| 1777801351 | 40° C | 48% | - | - | - | 0 W/m² | - |
| 1777801023 | 40° C | 47% | - | - | - | 0 W/m² | - |
| 1777800698 | 40° C | 46% | - | - | - | 0 W/m² | - |
| 1777800371 | 40.56° C | 46% | - | - | - | 0 W/m² | - |
| 1777800043 | 40.56° C | 46% | - | - | - | 0 W/m² | - |
| 1777799718 | 40.56° C | 46% | - | - | - | 0 W/m² | - |
| 1777799393 | 41.11° C | 43% | - | - | - | 0 W/m² | - |
| 1777799063 | 41.11° C | 44% | - | - | - | 0 W/m² | - |
| 1777798738 | 41.11° C | 44% | - | - | - | 0 W/m² | - |
| 1777798408 | 41.11° C | 42% | - | - | - | 0 W/m² | - |
| 1777798081 | 41.11° C | 44% | - | - | - | 0 W/m² | - |
| 1777797746 | 40.56° C | 44% | - | - | - | 0 W/m² | - |
| 1777797421 | 40.56° C | 45% | - | - | - | 0 W/m² | - |
| 1777797093 | 40.56° C | 46% | - | - | - | 0 W/m² | - |
| 1777796768 | 40.56° C | 45% | - | - | - | 0 W/m² | - |
| 1777796441 | 40° C | 46% | - | - | - | 0 W/m² | - |
| 1777796111 | 40° C | 47% | - | - | - | 0 W/m² | - |
| 1777795784 | 39.44° C | 49% | - | - | - | 0 W/m² | - |
| 1777795456 | 39.44° C | 50% | - | - | - | 0 W/m² | - |
| 1777795129 | 39.44° C | 49% | - | - | - | 0 W/m² | - |
| 1777794799 | 39.44° C | 51% | - | - | - | 0 W/m² | - |
| 1777794474 | 38.33° C | 52% | - | - | - | 0 W/m² | - |
| 1777794146 | 38.33° C | 52% | - | - | - | 0 W/m² | - |
| 1777793819 | 37.78° C | 53% | - | - | - | 0 W/m² | - |
| 1777793494 | 38.89° C | 51% | - | - | - | 0 W/m² | - |
* Rain since midnight (hover to see other rain measurements)
** Current wind speed in m/s (hover to see current wind gust speed)